createdAt,value
2019-04-21T08:16:37.051Z,91.90
2019-04-21T08:19:09.606Z,92.30
2019-04-21T08:24:11.702Z,92.30
2019-04-21T08:26:44.945Z,92.30
2019-04-21T08:29:20.287Z,92.50
2019-04-21T08:32:02.847Z,91.90
2019-04-21T08:34:14.061Z,92.00
2019-04-21T08:36:44.971Z,91.50
2019-04-21T08:39:19.555Z,91.80
2019-04-21T08:41:52.343Z,92.00
2019-04-21T08:44:25.645Z,92.10
2019-04-21T08:46:56.805Z,92.00
2019-04-21T08:49:22.209Z,92.00
2019-04-21T08:52:08.222Z,92.00
2019-04-21T08:54:26.538Z,91.50
2019-04-21T08:57:28.062Z,91.40
2019-04-21T09:00:01.502Z,91.60
2019-04-21T09:02:35.256Z,91.00
2019-04-21T09:12:39.135Z,89.80
2019-04-21T09:15:11.456Z,90.80
2019-04-21T09:17:35.540Z,90.00
2019-04-21T09:20:16.975Z,90.20
2019-04-21T09:22:43.065Z,91.00
2019-04-21T09:25:19.613Z,90.30
2019-04-21T09:27:41.953Z,89.30
2019-04-21T09:30:02.654Z,87.90
2019-04-21T09:32:33.082Z,88.80
2019-04-21T09:35:05.424Z,88.30
2019-04-21T09:37:44.391Z,87.40
2019-04-21T09:40:04.987Z,86.70
2019-04-21T09:42:42.169Z,85.40
2019-04-21T09:45:09.742Z,84.60
2019-04-21T09:47:46.025Z,81.40
2019-04-21T09:50:10.303Z,82.20
2019-04-21T09:52:47.713Z,75.40
2019-04-21T09:55:17.376Z,75.60
2019-04-21T09:57:51.602Z,76.70
2019-04-21T10:00:22.740Z,79.80
2019-04-21T10:02:56.742Z,86.60
2019-04-21T10:05:19.110Z,75.20
2019-04-21T10:07:49.005Z,74.40
2019-04-21T10:12:49.958Z,68.40
2019-04-21T10:15:23.258Z,68.60
2019-04-21T10:17:54.412Z,67.10
2019-04-21T10:20:24.518Z,65.70
2019-04-21T10:22:55.291Z,65.70
2019-04-21T10:25:25.134Z,65.50
2019-04-21T10:27:54.986Z,65.50
2019-04-21T10:30:24.857Z,65.20
2019-04-21T10:32:54.544Z,64.40
2019-04-21T10:35:25.035Z,63.30
2019-04-21T10:38:06.735Z,61.70
2019-04-21T10:40:30.717Z,60.90
2019-04-21T10:43:00.490Z,61.50
2019-04-21T10:45:30.905Z,61.00
2019-04-21T10:48:00.996Z,60.60
2019-04-21T10:50:31.386Z,61.60
2019-04-21T10:53:05.028Z,60.90
2019-04-21T10:55:48.673Z,59.30
2019-04-21T10:58:11.287Z,57.50
2019-04-21T11:00:42.324Z,58.90
2019-04-21T11:03:29.083Z,56.60
2019-04-21T11:05:59.168Z,54.70
2019-04-21T11:08:34.165Z,51.60
2019-04-21T11:11:01.526Z,52.30
2019-04-21T11:13:32.502Z,53.10
2019-04-21T11:16:03.400Z,54.20
2019-04-21T11:18:33.971Z,55.20
2019-04-21T11:21:04.932Z,53.60
2019-04-21T11:23:35.367Z,48.70
2019-04-21T11:26:06.456Z,49.50
2019-04-21T11:53:41.250Z,41.50
2019-04-21T11:56:11.056Z,42.10
2019-04-21T11:58:41.557Z,42.10
2019-04-21T12:01:13.741Z,42.30
2019-04-21T12:03:43.588Z,40.60
2019-04-21T12:06:13.472Z,41.00
2019-04-21T12:08:47.421Z,41.30
2019-04-21T12:11:15.872Z,41.90
2019-04-21T12:13:45.993Z,39.10
2019-04-21T12:16:16.880Z,39.50
2019-04-21T12:18:47.176Z,38.00
2019-04-21T12:21:19.002Z,39.10
2019-04-21T12:23:50.190Z,39.80
2019-04-21T12:26:20.101Z,38.90
2019-04-21T12:28:50.167Z,39.40
2019-04-21T12:31:33.659Z,40.60
2019-04-21T12:34:07.888Z,40.20
2019-04-21T12:36:38.047Z,39.70
2019-04-21T12:39:10.681Z,40.00
2019-04-21T12:41:40.812Z,41.00
2019-04-21T12:44:10.887Z,41.70
2019-04-21T12:46:40.630Z,42.10
2019-04-21T12:49:11.738Z,41.50
2019-04-21T12:51:41.855Z,41.60
2019-04-21T12:54:12.035Z,40.70
2019-04-21T12:56:43.248Z,40.60
2019-04-21T12:59:13.057Z,36.50
2019-04-21T13:01:43.125Z,35.40
2019-04-21T23:49:02.455Z,97.20
2019-04-21T23:51:27.498Z,97.50
2019-04-21T23:53:47.259Z,97.70
2019-04-21T23:56:21.676Z,97.80
2019-04-21T23:58:54.695Z,98.00
